sensor_id;sensor_type;location;lat;lon;timestamp;P1;durP1;ratioP1;P2;durP2;ratioP2
62915;SDS011;49010;51.230;-2.306;2022-12-18T00:02:03;29.35;;;16.13;;
62915;SDS011;49010;51.230;-2.306;2022-12-18T00:05:45;32.72;;;16.90;;
62915;SDS011;49010;51.230;-2.306;2022-12-18T00:09:28;27.92;;;16.17;;
62915;SDS011;49010;51.230;-2.306;2022-12-18T00:13:20;21.50;;;13.68;;
62915;SDS011;49010;51.230;-2.306;2022-12-18T00:17:01;29.17;;;16.42;;
62915;SDS011;49010;51.230;-2.306;2022-12-18T00:20:43;40.13;;;18.35;;
62915;SDS011;49010;51.230;-2.306;2022-12-18T00:24:25;34.67;;;18.52;;
62915;SDS011;49010;51.230;-2.306;2022-12-18T00:28:07;40.88;;;19.63;;
62915;SDS011;49010;51.230;-2.306;2022-12-18T00:31:49;43.42;;;21.25;;
62915;SDS011;49010;51.230;-2.306;2022-12-18T00:35:31;37.80;;;20.77;;
62915;SDS011;49010;51.230;-2.306;2022-12-18T00:39:13;35.08;;;18.92;;
62915;SDS011;49010;51.230;-2.306;2022-12-18T00:42:54;39.28;;;21.38;;
62915;SDS011;49010;51.230;-2.306;2022-12-18T00:46:36;47.63;;;21.98;;
62915;SDS011;49010;51.230;-2.306;2022-12-18T00:50:18;39.03;;;19.88;;
62915;SDS011;49010;51.230;-2.306;2022-12-18T00:54:00;35.35;;;19.65;;
62915;SDS011;49010;51.230;-2.306;2022-12-18T00:57:42;39.17;;;18.95;;
62915;SDS011;49010;51.230;-2.306;2022-12-18T01:01:24;33.53;;;17.65;;
62915;SDS011;49010;51.230;-2.306;2022-12-18T01:05:06;33.85;;;17.10;;
62915;SDS011;49010;51.230;-2.306;2022-12-18T01:08:49;28.17;;;16.58;;
62915;SDS011;49010;51.230;-2.306;2022-12-18T01:12:30;34.28;;;16.88;;
62915;SDS011;49010;51.230;-2.306;2022-12-18T01:16:13;30.40;;;15.65;;
62915;SDS011;49010;51.230;-2.306;2022-12-18T01:19:56;30.25;;;16.00;;
62915;SDS011;49010;51.230;-2.306;2022-12-18T01:23:38;29.98;;;15.68;;
62915;SDS011;49010;51.230;-2.306;2022-12-18T01:27:21;28.00;;;16.05;;
62915;SDS011;49010;51.230;-2.306;2022-12-18T01:31:16;20.17;;;10.52;;
62915;SDS011;49010;51.230;-2.306;2022-12-18T01:35:01;21.83;;;12.07;;
62915;SDS011;49010;51.230;-2.306;2022-12-18T01:38:44;28.38;;;14.60;;
62915;SDS011;49010;51.230;-2.306;2022-12-18T01:42:26;29.80;;;16.80;;
62915;SDS011;49010;51.230;-2.306;2022-12-18T01:46:08;25.88;;;12.95;;
62915;SDS011;49010;51.230;-2.306;2022-12-18T01:49:50;18.92;;;10.55;;
62915;SDS011;49010;51.230;-2.306;2022-12-18T01:53:32;20.73;;;11.25;;
62915;SDS011;49010;51.230;-2.306;2022-12-18T01:57:15;17.17;;;9.48;;
62915;SDS011;49010;51.230;-2.306;2022-12-18T02:00:57;23.92;;;9.40;;
62915;SDS011;49010;51.230;-2.306;2022-12-18T02:04:39;15.85;;;8.30;;
62915;SDS011;49010;51.230;-2.306;2022-12-18T02:08:39;19.80;;;8.23;;
62915;SDS011;49010;51.230;-2.306;2022-12-18T02:12:24;17.98;;;8.75;;
62915;SDS011;49010;51.230;-2.306;2022-12-18T02:16:21;17.67;;;7.43;;
62915;SDS011;49010;51.230;-2.306;2022-12-18T02:20:24;14.30;;;7.25;;
62915;SDS011;49010;51.230;-2.306;2022-12-18T02:28:11;13.90;;;6.10;;
62915;SDS011;49010;51.230;-2.306;2022-12-18T02:31:57;11.63;;;6.28;;
62915;SDS011;49010;51.230;-2.306;2022-12-18T02:35:40;16.10;;;6.88;;
62915;SDS011;49010;51.230;-2.306;2022-12-18T02:39:23;14.27;;;5.88;;
62915;SDS011;49010;51.230;-2.306;2022-12-18T02:43:11;14.25;;;6.45;;
62915;SDS011;49010;51.230;-2.306;2022-12-18T02:46:55;14.32;;;6.90;;
62915;SDS011;49010;51.230;-2.306;2022-12-18T02:50:45;12.80;;;6.85;;
62915;SDS011;49010;51.230;-2.306;2022-12-18T02:54:52;14.13;;;7.85;;
62915;SDS011;49010;51.230;-2.306;2022-12-18T03:02:42;13.85;;;7.30;;
62915;SDS011;49010;51.230;-2.306;2022-12-18T03:06:39;12.07;;;6.05;;
62915;SDS011;49010;51.230;-2.306;2022-12-18T03:10:26;11.90;;;5.78;;
62915;SDS011;49010;51.230;-2.306;2022-12-18T03:14:11;12.20;;;6.03;;
62915;SDS011;49010;51.230;-2.306;2022-12-18T03:17:59;12.25;;;5.60;;
62915;SDS011;49010;51.230;-2.306;2022-12-18T03:21:46;15.27;;;6.68;;
62915;SDS011;49010;51.230;-2.306;2022-12-18T03:25:32;11.77;;;5.57;;
62915;SDS011;49010;51.230;-2.306;2022-12-18T03:29:22;12.45;;;6.35;;
62915;SDS011;49010;51.230;-2.306;2022-12-18T03:33:18;16.70;;;7.05;;
62915;SDS011;49010;51.230;-2.306;2022-12-18T03:37:05;14.57;;;7.18;;
62915;SDS011;49010;51.230;-2.306;2022-12-18T03:48:32;13.90;;;6.60;;
62915;SDS011;49010;51.230;-2.306;2022-12-18T03:56:06;16.30;;;7.28;;
62915;SDS011;49010;51.230;-2.306;2022-12-18T03:59:52;13.35;;;7.05;;
62915;SDS011;49010;51.230;-2.306;2022-12-18T04:03:37;13.50;;;6.85;;
62915;SDS011;49010;51.230;-2.306;2022-12-18T04:07:21;17.65;;;7.88;;
62915;SDS011;49010;51.230;-2.306;2022-12-18T04:11:04;15.05;;;8.07;;
62915;SDS011;49010;51.230;-2.306;2022-12-18T04:14:46;15.45;;;7.07;;
62915;SDS011;49010;51.230;-2.306;2022-12-18T04:18:27;15.32;;;7.70;;
62915;SDS011;49010;51.230;-2.306;2022-12-18T04:22:10;14.40;;;7.53;;
62915;SDS011;49010;51.230;-2.306;2022-12-18T04:25:52;13.63;;;7.70;;
62915;SDS011;49010;51.230;-2.306;2022-12-18T04:29:33;19.27;;;7.38;;
62915;SDS011;49010;51.230;-2.306;2022-12-18T04:33:15;17.20;;;7.97;;
62915;SDS011;49010;51.230;-2.306;2022-12-18T04:36:57;15.05;;;7.00;;
62915;SDS011;49010;51.230;-2.306;2022-12-18T04:40:39;15.15;;;8.27;;
62915;SDS011;49010;51.230;-2.306;2022-12-18T04:44:22;18.20;;;7.57;;
62915;SDS011;49010;51.230;-2.306;2022-12-18T04:48:03;19.33;;;7.90;;
62915;SDS011;49010;51.230;-2.306;2022-12-18T04:51:45;22.02;;;9.18;;
62915;SDS011;49010;51.230;-2.306;2022-12-18T04:55:27;22.25;;;8.82;;
62915;SDS011;49010;51.230;-2.306;2022-12-18T04:59:09;16.95;;;7.75;;
62915;SDS011;49010;51.230;-2.306;2022-12-18T05:02:51;17.58;;;8.30;;
62915;SDS011;49010;51.230;-2.306;2022-12-18T05:06:33;16.95;;;7.65;;
62915;SDS011;49010;51.230;-2.306;2022-12-18T05:10:15;14.80;;;8.13;;
62915;SDS011;49010;51.230;-2.306;2022-12-18T05:13:56;17.08;;;7.72;;
62915;SDS011;49010;51.230;-2.306;2022-12-18T05:17:38;17.65;;;8.32;;
62915;SDS011;49010;51.230;-2.306;2022-12-18T05:21:20;19.52;;;9.55;;
62915;SDS011;49010;51.230;-2.306;2022-12-18T05:25:02;16.85;;;6.82;;
62915;SDS011;49010;51.230;-2.306;2022-12-18T05:28:44;17.98;;;8.70;;
62915;SDS011;49010;51.230;-2.306;2022-12-18T05:32:26;22.42;;;9.45;;
62915;SDS011;49010;51.230;-2.306;2022-12-18T05:36:08;20.55;;;8.30;;
62915;SDS011;49010;51.230;-2.306;2022-12-18T05:39:50;21.65;;;10.38;;
62915;SDS011;49010;51.230;-2.306;2022-12-18T05:43:33;26.52;;;12.00;;
62915;SDS011;49010;51.230;-2.306;2022-12-18T05:47:17;22.92;;;10.52;;
62915;SDS011;49010;51.230;-2.306;2022-12-18T05:51:06;20.48;;;10.07;;
62915;SDS011;49010;51.230;-2.306;2022-12-18T05:54:49;23.38;;;10.70;;
62915;SDS011;49010;51.230;-2.306;2022-12-18T05:58:31;26.90;;;11.63;;
62915;SDS011;49010;51.230;-2.306;2022-12-18T06:02:15;27.08;;;12.13;;
62915;SDS011;49010;51.230;-2.306;2022-12-18T06:05:57;23.98;;;11.40;;
62915;SDS011;49010;51.230;-2.306;2022-12-18T06:09:38;27.10;;;10.55;;
62915;SDS011;49010;51.230;-2.306;2022-12-18T06:13:20;26.80;;;11.60;;
62915;SDS011;49010;51.230;-2.306;2022-12-18T06:17:02;26.63;;;11.80;;
62915;SDS011;49010;51.230;-2.306;2022-12-18T06:20:44;23.98;;;11.52;;
62915;SDS011;49010;51.230;-2.306;2022-12-18T06:24:26;23.42;;;11.20;;
62915;SDS011;49010;51.230;-2.306;2022-12-18T06:28:07;27.15;;;12.32;;
62915;SDS011;49010;51.230;-2.306;2022-12-18T06:31:51;23.25;;;11.38;;
62915;SDS011;49010;51.230;-2.306;2022-12-18T06:35:32;22.40;;;10.90;;
62915;SDS011;49010;51.230;-2.306;2022-12-18T06:39:14;29.27;;;11.30;;
62915;SDS011;49010;51.230;-2.306;2022-12-18T06:42:56;24.08;;;12.30;;
62915;SDS011;49010;51.230;-2.306;2022-12-18T06:46:38;22.65;;;10.52;;
62915;SDS011;49010;51.230;-2.306;2022-12-18T06:50:21;25.23;;;10.40;;
62915;SDS011;49010;51.230;-2.306;2022-12-18T06:54:03;23.17;;;10.73;;
62915;SDS011;49010;51.230;-2.306;2022-12-18T06:57:45;22.88;;;10.07;;
62915;SDS011;49010;51.230;-2.306;2022-12-18T07:01:27;23.88;;;12.75;;
62915;SDS011;49010;51.230;-2.306;2022-12-18T07:05:09;22.02;;;10.48;;
62915;SDS011;49010;51.230;-2.306;2022-12-18T07:08:52;24.73;;;11.10;;
62915;SDS011;49010;51.230;-2.306;2022-12-18T07:12:35;26.75;;;10.35;;
62915;SDS011;49010;51.230;-2.306;2022-12-18T07:16:17;21.38;;;9.68;;
62915;SDS011;49010;51.230;-2.306;2022-12-18T07:20:06;23.75;;;9.88;;
62915;SDS011;49010;51.230;-2.306;2022-12-18T07:23:48;22.08;;;10.63;;
62915;SDS011;49010;51.230;-2.306;2022-12-18T07:27:30;23.13;;;10.02;;
62915;SDS011;49010;51.230;-2.306;2022-12-18T07:31:14;21.50;;;8.93;;
62915;SDS011;49010;51.230;-2.306;2022-12-18T07:35:02;22.00;;;9.65;;
62915;SDS011;49010;51.230;-2.306;2022-12-18T07:38:46;18.13;;;9.23;;
62915;SDS011;49010;51.230;-2.306;2022-12-18T07:42:29;18.05;;;9.30;;
62915;SDS011;49010;51.230;-2.306;2022-12-18T07:46:13;19.92;;;8.65;;
62915;SDS011;49010;51.230;-2.306;2022-12-18T07:49:56;19.27;;;9.85;;
62915;SDS011;49010;51.230;-2.306;2022-12-18T07:53:39;25.08;;;10.32;;
62915;SDS011;49010;51.230;-2.306;2022-12-18T07:57:22;21.27;;;9.95;;
62915;SDS011;49010;51.230;-2.306;2022-12-18T08:01:24;20.42;;;9.38;;
62915;SDS011;49010;51.230;-2.306;2022-12-18T08:05:09;24.88;;;9.23;;
62915;SDS011;49010;51.230;-2.306;2022-12-18T08:08:51;17.58;;;8.90;;
62915;SDS011;49010;51.230;-2.306;2022-12-18T08:12:34;15.70;;;8.38;;
62915;SDS011;49010;51.230;-2.306;2022-12-18T08:16:16;19.08;;;7.75;;
62915;SDS011;49010;51.230;-2.306;2022-12-18T08:19:58;15.35;;;7.78;;
62915;SDS011;49010;51.230;-2.306;2022-12-18T08:23:40;15.88;;;8.35;;
62915;SDS011;49010;51.230;-2.306;2022-12-18T08:27:23;15.15;;;7.40;;
62915;SDS011;49010;51.230;-2.306;2022-12-18T08:31:10;18.20;;;7.70;;
62915;SDS011;49010;51.230;-2.306;2022-12-18T08:34:52;14.30;;;7.70;;
62915;SDS011;49010;51.230;-2.306;2022-12-18T08:38:34;15.88;;;8.20;;
62915;SDS011;49010;51.230;-2.306;2022-12-18T08:42:16;16.25;;;7.60;;
62915;SDS011;49010;51.230;-2.306;2022-12-18T08:46:17;17.52;;;7.97;;
62915;SDS011;49010;51.230;-2.306;2022-12-18T08:49:59;17.73;;;8.07;;
62915;SDS011;49010;51.230;-2.306;2022-12-18T08:53:41;21.10;;;8.65;;
62915;SDS011;49010;51.230;-2.306;2022-12-18T08:57:23;16.80;;;9.43;;
62915;SDS011;49010;51.230;-2.306;2022-12-18T09:01:06;21.45;;;9.20;;
62915;SDS011;49010;51.230;-2.306;2022-12-18T09:04:52;17.08;;;9.40;;
62915;SDS011;49010;51.230;-2.306;2022-12-18T09:08:38;18.50;;;9.73;;
62915;SDS011;49010;51.230;-2.306;2022-12-18T09:12:20;18.25;;;8.88;;
62915;SDS011;49010;51.230;-2.306;2022-12-18T09:16:02;21.85;;;9.50;;
62915;SDS011;49010;51.230;-2.306;2022-12-18T09:19:44;14.63;;;8.32;;
62915;SDS011;49010;51.230;-2.306;2022-12-18T09:23:26;18.00;;;8.55;;
62915;SDS011;49010;51.230;-2.306;2022-12-18T09:27:08;16.45;;;8.30;;
62915;SDS011;49010;51.230;-2.306;2022-12-18T09:30:50;19.73;;;10.18;;
62915;SDS011;49010;51.230;-2.306;2022-12-18T09:34:32;18.92;;;9.25;;
62915;SDS011;49010;51.230;-2.306;2022-12-18T09:38:14;22.85;;;11.20;;
62915;SDS011;49010;51.230;-2.306;2022-12-18T09:41:59;18.42;;;9.68;;
62915;SDS011;49010;51.230;-2.306;2022-12-18T09:45:42;20.05;;;11.23;;
62915;SDS011;49010;51.230;-2.306;2022-12-18T09:49:29;21.70;;;11.68;;
62915;SDS011;49010;51.230;-2.306;2022-12-18T09:53:21;20.48;;;11.15;;
62915;SDS011;49010;51.230;-2.306;2022-12-18T09:57:11;19.73;;;9.15;;
62915;SDS011;49010;51.230;-2.306;2022-12-18T10:00:56;19.23;;;10.55;;
62915;SDS011;49010;51.230;-2.306;2022-12-18T10:04:38;20.05;;;10.60;;
62915;SDS011;49010;51.230;-2.306;2022-12-18T10:12:25;20.10;;;11.05;;
62915;SDS011;49010;51.230;-2.306;2022-12-18T10:20:43;25.63;;;11.98;;
62915;SDS011;49010;51.230;-2.306;2022-12-18T10:24:39;21.98;;;11.05;;
62915;SDS011;49010;51.230;-2.306;2022-12-18T10:28:26;20.67;;;10.13;;
62915;SDS011;49010;51.230;-2.306;2022-12-18T10:32:17;24.27;;;11.15;;
62915;SDS011;49010;51.230;-2.306;2022-12-18T10:36:03;25.13;;;11.95;;
62915;SDS011;49010;51.230;-2.306;2022-12-18T10:40:04;20.00;;;10.02;;
62915;SDS011;49010;51.230;-2.306;2022-12-18T10:43:52;24.40;;;12.90;;
62915;SDS011;49010;51.230;-2.306;2022-12-18T10:48:01;24.45;;;12.65;;
62915;SDS011;49010;51.230;-2.306;2022-12-18T10:51:44;23.67;;;11.15;;
62915;SDS011;49010;51.230;-2.306;2022-12-18T10:55:27;27.20;;;12.73;;
62915;SDS011;49010;51.230;-2.306;2022-12-18T10:59:16;22.73;;;12.30;;
62915;SDS011;49010;51.230;-2.306;2022-12-18T11:02:59;26.02;;;11.88;;
62915;SDS011;49010;51.230;-2.306;2022-12-18T11:07:00;22.63;;;11.73;;
62915;SDS011;49010;51.230;-2.306;2022-12-18T11:10:47;24.33;;;12.70;;
62915;SDS011;49010;51.230;-2.306;2022-12-18T11:14:30;24.30;;;12.85;;
62915;SDS011;49010;51.230;-2.306;2022-12-18T11:18:19;21.45;;;11.52;;
62915;SDS011;49010;51.230;-2.306;2022-12-18T11:22:25;21.38;;;10.55;;
62915;SDS011;49010;51.230;-2.306;2022-12-18T11:26:10;22.60;;;10.68;;
62915;SDS011;49010;51.230;-2.306;2022-12-18T11:29:52;22.33;;;11.77;;
62915;SDS011;49010;51.230;-2.306;2022-12-18T11:33:34;18.45;;;9.93;;
62915;SDS011;49010;51.230;-2.306;2022-12-18T11:37:16;18.88;;;9.35;;
62915;SDS011;49010;51.230;-2.306;2022-12-18T11:41:06;18.27;;;9.95;;
62915;SDS011;49010;51.230;-2.306;2022-12-18T11:45:46;17.80;;;9.57;;
62915;SDS011;49010;51.230;-2.306;2022-12-18T11:49:49;18.88;;;10.13;;
62915;SDS011;49010;51.230;-2.306;2022-12-18T11:53:31;15.95;;;9.23;;
62915;SDS011;49010;51.230;-2.306;2022-12-18T12:30:05;7.95;;;4.80;;
62915;SDS011;49010;51.230;-2.306;2022-12-18T12:34:17;9.95;;;4.18;;
62915;SDS011;49010;51.230;-2.306;2022-12-18T12:41:49;5.93;;;3.47;;
62915;SDS011;49010;51.230;-2.306;2022-12-18T12:45:56;5.15;;;3.08;;
62915;SDS011;49010;51.230;-2.306;2022-12-18T12:49:40;5.93;;;3.33;;
62915;SDS011;49010;51.230;-2.306;2022-12-18T12:53:31;7.40;;;3.22;;
62915;SDS011;49010;51.230;-2.306;2022-12-18T12:57:20;3.33;;;2.55;;
62915;SDS011;49010;51.230;-2.306;2022-12-18T13:05:14;2.75;;;1.90;;
62915;SDS011;49010;51.230;-2.306;2022-12-18T13:09:21;3.28;;;1.73;;
62915;SDS011;49010;51.230;-2.306;2022-12-18T13:13:10;4.25;;;2.20;;
62915;SDS011;49010;51.230;-2.306;2022-12-18T13:21:03;4.30;;;2.00;;
62915;SDS011;49010;51.230;-2.306;2022-12-18T13:25:00;3.05;;;1.52;;
62915;SDS011;49010;51.230;-2.306;2022-12-18T13:32:27;2.90;;;1.60;;
62915;SDS011;49010;51.230;-2.306;2022-12-18T13:39:53;0.95;;;0.80;;
62915;SDS011;49010;51.230;-2.306;2022-12-18T13:51:17;1.80;;;1.20;;
62915;SDS011;49010;51.230;-2.306;2022-12-18T13:55:02;2.22;;;0.88;;
62915;SDS011;49010;51.230;-2.306;2022-12-18T14:02:57;2.88;;;0.98;;
62915;SDS011;49010;51.230;-2.306;2022-12-18T14:06:40;1.75;;;0.95;;
62915;SDS011;49010;51.230;-2.306;2022-12-18T14:10:24;1.40;;;0.80;;
62915;SDS011;49010;51.230;-2.306;2022-12-18T14:14:26;1.67;;;0.90;;
62915;SDS011;49010;51.230;-2.306;2022-12-18T14:21:55;2.30;;;0.80;;
62915;SDS011;49010;51.230;-2.306;2022-12-18T14:25:37;1.88;;;1.05;;
62915;SDS011;49010;51.230;-2.306;2022-12-18T14:36:55;1.17;;;0.88;;
62915;SDS011;49010;51.230;-2.306;2022-12-18T14:40:37;3.85;;;1.50;;
62915;SDS011;49010;51.230;-2.306;2022-12-18T14:44:20;1.73;;;0.80;;
62915;SDS011;49010;51.230;-2.306;2022-12-18T14:48:06;1.05;;;0.63;;
62915;SDS011;49010;51.230;-2.306;2022-12-18T14:52:00;3.05;;;0.80;;
62915;SDS011;49010;51.230;-2.306;2022-12-18T14:55:47;2.28;;;0.70;;
62915;SDS011;49010;51.230;-2.306;2022-12-18T14:59:30;1.13;;;0.80;;
62915;SDS011;49010;51.230;-2.306;2022-12-18T15:03:14;2.38;;;1.02;;
62915;SDS011;49010;51.230;-2.306;2022-12-18T15:07:17;1.42;;;1.30;;
62915;SDS011;49010;51.230;-2.306;2022-12-18T15:10:59;2.13;;;0.90;;
62915;SDS011;49010;51.230;-2.306;2022-12-18T15:14:43;2.67;;;1.10;;
62915;SDS011;49010;51.230;-2.306;2022-12-18T15:18:32;2.10;;;1.00;;
62915;SDS011;49010;51.230;-2.306;2022-12-18T15:26:11;1.60;;;0.90;;
62915;SDS011;49010;51.230;-2.306;2022-12-18T15:29:59;3.88;;;1.30;;
62915;SDS011;49010;51.230;-2.306;2022-12-18T15:34:12;3.75;;;1.02;;
62915;SDS011;49010;51.230;-2.306;2022-12-18T15:37:59;3.45;;;0.90;;
62915;SDS011;49010;51.230;-2.306;2022-12-18T15:41:41;3.78;;;0.70;;
62915;SDS011;49010;51.230;-2.306;2022-12-18T15:45:42;1.20;;;0.70;;
62915;SDS011;49010;51.230;-2.306;2022-12-18T15:49:24;1.80;;;1.00;;
62915;SDS011;49010;51.230;-2.306;2022-12-18T15:53:09;3.42;;;1.17;;
62915;SDS011;49010;51.230;-2.306;2022-12-18T15:56:51;3.08;;;1.30;;
62915;SDS011;49010;51.230;-2.306;2022-12-18T16:00:52;3.42;;;1.48;;
62915;SDS011;49010;51.230;-2.306;2022-12-18T16:04:35;2.63;;;1.20;;
62915;SDS011;49010;51.230;-2.306;2022-12-18T16:08:17;3.00;;;1.20;;
62915;SDS011;49010;51.230;-2.306;2022-12-18T16:11:59;2.42;;;1.10;;
62915;SDS011;49010;51.230;-2.306;2022-12-18T16:15:41;2.45;;;1.10;;
62915;SDS011;49010;51.230;-2.306;2022-12-18T16:19:23;2.92;;;1.25;;
62915;SDS011;49010;51.230;-2.306;2022-12-18T16:23:07;4.63;;;1.30;;
62915;SDS011;49010;51.230;-2.306;2022-12-18T16:26:49;2.30;;;1.00;;
62915;SDS011;49010;51.230;-2.306;2022-12-18T16:30:35;2.42;;;1.42;;
62915;SDS011;49010;51.230;-2.306;2022-12-18T16:38:09;5.70;;;2.42;;
62915;SDS011;49010;51.230;-2.306;2022-12-18T16:41:53;4.07;;;1.63;;
62915;SDS011;49010;51.230;-2.306;2022-12-18T16:45:37;3.22;;;1.48;;
62915;SDS011;49010;51.230;-2.306;2022-12-18T16:49:19;3.45;;;1.48;;
62915;SDS011;49010;51.230;-2.306;2022-12-18T16:53:01;4.32;;;1.60;;
62915;SDS011;49010;51.230;-2.306;2022-12-18T16:56:42;5.38;;;1.52;;
62915;SDS011;49010;51.230;-2.306;2022-12-18T17:00:25;2.58;;;1.50;;
62915;SDS011;49010;51.230;-2.306;2022-12-18T17:04:10;4.05;;;1.80;;
62915;SDS011;49010;51.230;-2.306;2022-12-18T17:07:52;2.83;;;1.40;;
62915;SDS011;49010;51.230;-2.306;2022-12-18T17:11:34;3.45;;;1.77;;
62915;SDS011;49010;51.230;-2.306;2022-12-18T17:15:19;9.00;;;2.35;;
62915;SDS011;49010;51.230;-2.306;2022-12-18T17:19:01;3.25;;;1.90;;
62915;SDS011;49010;51.230;-2.306;2022-12-18T17:22:44;3.70;;;2.15;;
62915;SDS011;49010;51.230;-2.306;2022-12-18T17:26:27;6.47;;;2.28;;
62915;SDS011;49010;51.230;-2.306;2022-12-18T17:30:09;5.72;;;2.22;;
62915;SDS011;49010;51.230;-2.306;2022-12-18T17:33:51;4.72;;;1.95;;
62915;SDS011;49010;51.230;-2.306;2022-12-18T17:37:33;3.92;;;1.63;;
62915;SDS011;49010;51.230;-2.306;2022-12-18T17:41:15;3.45;;;1.83;;
62915;SDS011;49010;51.230;-2.306;2022-12-18T17:44:57;4.70;;;1.48;;
62915;SDS011;49010;51.230;-2.306;2022-12-18T17:48:39;7.43;;;2.20;;
62915;SDS011;49010;51.230;-2.306;2022-12-18T17:52:21;3.97;;;2.30;;
62915;SDS011;49010;51.230;-2.306;2022-12-18T17:56:06;5.90;;;2.33;;
62915;SDS011;49010;51.230;-2.306;2022-12-18T17:59:50;6.50;;;2.30;;
62915;SDS011;49010;51.230;-2.306;2022-12-18T18:03:32;7.80;;;2.03;;
62915;SDS011;49010;51.230;-2.306;2022-12-18T18:07:15;4.40;;;1.90;;
62915;SDS011;49010;51.230;-2.306;2022-12-18T18:10:57;5.72;;;1.95;;
62915;SDS011;49010;51.230;-2.306;2022-12-18T18:14:59;5.22;;;1.95;;
62915;SDS011;49010;51.230;-2.306;2022-12-18T18:18:41;2.85;;;1.13;;
62915;SDS011;49010;51.230;-2.306;2022-12-18T18:22:23;4.47;;;1.65;;
62915;SDS011;49010;51.230;-2.306;2022-12-18T18:26:05;2.83;;;1.80;;
62915;SDS011;49010;51.230;-2.306;2022-12-18T18:29:49;3.67;;;1.50;;
62915;SDS011;49010;51.230;-2.306;2022-12-18T18:33:31;4.55;;;1.52;;
62915;SDS011;49010;51.230;-2.306;2022-12-18T18:37:13;2.20;;;1.20;;
62915;SDS011;49010;51.230;-2.306;2022-12-18T18:41:02;3.47;;;1.30;;
62915;SDS011;49010;51.230;-2.306;2022-12-18T18:44:44;1.75;;;0.90;;
62915;SDS011;49010;51.230;-2.306;2022-12-18T18:48:34;4.03;;;1.00;;
62915;SDS011;49010;51.230;-2.306;2022-12-18T18:52:17;3.63;;;1.20;;
62915;SDS011;49010;51.230;-2.306;2022-12-18T18:55:59;2.42;;;1.50;;
62915;SDS011;49010;51.230;-2.306;2022-12-18T19:00:01;1.88;;;0.90;;
62915;SDS011;49010;51.230;-2.306;2022-12-18T19:03:44;3.42;;;1.33;;
62915;SDS011;49010;51.230;-2.306;2022-12-18T19:07:26;2.75;;;1.02;;
62915;SDS011;49010;51.230;-2.306;2022-12-18T19:11:11;2.47;;;1.30;;
62915;SDS011;49010;51.230;-2.306;2022-12-18T19:15:16;7.28;;;1.30;;
62915;SDS011;49010;51.230;-2.306;2022-12-18T19:18:58;2.47;;;1.10;;
62915;SDS011;49010;51.230;-2.306;2022-12-18T19:22:42;1.98;;;0.90;;
62915;SDS011;49010;51.230;-2.306;2022-12-18T19:26:35;4.65;;;0.73;;
62915;SDS011;49010;51.230;-2.306;2022-12-18T19:30:17;4.05;;;1.23;;
62915;SDS011;49010;51.230;-2.306;2022-12-18T19:33:59;6.85;;;1.23;;
62915;SDS011;49010;51.230;-2.306;2022-12-18T19:37:41;3.42;;;1.13;;
62915;SDS011;49010;51.230;-2.306;2022-12-18T19:41:23;3.03;;;1.42;;
62915;SDS011;49010;51.230;-2.306;2022-12-18T19:45:08;3.90;;;1.35;;
62915;SDS011;49010;51.230;-2.306;2022-12-18T19:48:50;3.83;;;0.77;;
62915;SDS011;49010;51.230;-2.306;2022-12-18T19:52:32;1.45;;;0.88;;
62915;SDS011;49010;51.230;-2.306;2022-12-18T19:56:15;4.18;;;0.93;;
62915;SDS011;49010;51.230;-2.306;2022-12-18T19:59:59;4.07;;;1.27;;
62915;SDS011;49010;51.230;-2.306;2022-12-18T20:03:41;3.28;;;1.00;;
62915;SDS011;49010;51.230;-2.306;2022-12-18T20:07:27;3.40;;;1.15;;
62915;SDS011;49010;51.230;-2.306;2022-12-18T20:11:09;2.35;;;0.73;;
62915;SDS011;49010;51.230;-2.306;2022-12-18T20:14:52;2.50;;;0.45;;
62915;SDS011;49010;51.230;-2.306;2022-12-18T20:18:33;2.45;;;0.52;;
62915;SDS011;49010;51.230;-2.306;2022-12-18T20:22:15;0.75;;;0.35;;
62915;SDS011;49010;51.230;-2.306;2022-12-18T20:25:57;1.23;;;0.60;;
62915;SDS011;49010;51.230;-2.306;2022-12-18T20:29:40;3.80;;;0.93;;
62915;SDS011;49010;51.230;-2.306;2022-12-18T20:33:23;5.05;;;0.50;;
62915;SDS011;49010;51.230;-2.306;2022-12-18T20:37:05;1.33;;;0.60;;
62915;SDS011;49010;51.230;-2.306;2022-12-18T20:40:47;0.80;;;0.20;;
62915;SDS011;49010;51.230;-2.306;2022-12-18T20:44:29;0.95;;;0.28;;
62915;SDS011;49010;51.230;-2.306;2022-12-18T20:48:10;1.05;;;0.20;;
62915;SDS011;49010;51.230;-2.306;2022-12-18T20:51:53;1.30;;;0.30;;
62915;SDS011;49010;51.230;-2.306;2022-12-18T20:55:40;0.30;;;0.20;;
62915;SDS011;49010;51.230;-2.306;2022-12-18T20:59:22;2.15;;;0.25;;
62915;SDS011;49010;51.230;-2.306;2022-12-18T21:03:06;1.00;;;0.40;;
62915;SDS011;49010;51.230;-2.306;2022-12-18T21:06:48;1.00;;;0.40;;
62915;SDS011;49010;51.230;-2.306;2022-12-18T21:10:40;0.95;;;0.45;;
62915;SDS011;49010;51.230;-2.306;2022-12-18T21:14:24;3.92;;;0.65;;
62915;SDS011;49010;51.230;-2.306;2022-12-18T21:18:08;5.32;;;0.68;;
62915;SDS011;49010;51.230;-2.306;2022-12-18T21:21:50;3.92;;;0.95;;
62915;SDS011;49010;51.230;-2.306;2022-12-18T21:25:32;6.47;;;1.50;;
62915;SDS011;49010;51.230;-2.306;2022-12-18T21:29:15;4.70;;;1.70;;
62915;SDS011;49010;51.230;-2.306;2022-12-18T21:33:02;6.47;;;1.10;;
62915;SDS011;49010;51.230;-2.306;2022-12-18T21:36:44;7.25;;;1.95;;
62915;SDS011;49010;51.230;-2.306;2022-12-18T21:40:27;3.80;;;1.85;;
62915;SDS011;49010;51.230;-2.306;2022-12-18T21:44:13;3.28;;;1.20;;
62915;SDS011;49010;51.230;-2.306;2022-12-18T21:47:56;8.23;;;1.95;;
62915;SDS011;49010;51.230;-2.306;2022-12-18T21:51:40;6.13;;;1.13;;
62915;SDS011;49010;51.230;-2.306;2022-12-18T21:55:22;3.95;;;1.25;;
62915;SDS011;49010;51.230;-2.306;2022-12-18T21:59:04;4.25;;;1.17;;
62915;SDS011;49010;51.230;-2.306;2022-12-18T22:02:46;4.25;;;1.00;;
62915;SDS011;49010;51.230;-2.306;2022-12-18T22:06:52;5.15;;;1.50;;
62915;SDS011;49010;51.230;-2.306;2022-12-18T22:10:34;1.70;;;0.80;;
62915;SDS011;49010;51.230;-2.306;2022-12-18T22:14:18;5.13;;;1.27;;
62915;SDS011;49010;51.230;-2.306;2022-12-18T22:18:01;4.28;;;1.10;;
62915;SDS011;49010;51.230;-2.306;2022-12-18T22:21:43;3.90;;;1.00;;
62915;SDS011;49010;51.230;-2.306;2022-12-18T22:25:27;2.95;;;0.95;;
62915;SDS011;49010;51.230;-2.306;2022-12-18T22:29:13;5.90;;;1.50;;
62915;SDS011;49010;51.230;-2.306;2022-12-18T22:33:15;4.95;;;1.30;;
62915;SDS011;49010;51.230;-2.306;2022-12-18T22:36:57;4.40;;;1.33;;
62915;SDS011;49010;51.230;-2.306;2022-12-18T22:40:39;2.58;;;1.05;;
62915;SDS011;49010;51.230;-2.306;2022-12-18T22:44:20;3.17;;;0.73;;
62915;SDS011;49010;51.230;-2.306;2022-12-18T22:48:02;2.83;;;1.23;;
62915;SDS011;49010;51.230;-2.306;2022-12-18T22:51:44;4.45;;;0.82;;
62915;SDS011;49010;51.230;-2.306;2022-12-18T22:55:27;8.00;;;1.38;;
62915;SDS011;49010;51.230;-2.306;2022-12-18T22:59:18;6.18;;;1.30;;
62915;SDS011;49010;51.230;-2.306;2022-12-18T23:03:01;6.78;;;1.25;;
62915;SDS011;49010;51.230;-2.306;2022-12-18T23:06:46;2.60;;;0.82;;
62915;SDS011;49010;51.230;-2.306;2022-12-18T23:10:28;1.92;;;0.77;;
62915;SDS011;49010;51.230;-2.306;2022-12-18T23:14:10;3.42;;;1.48;;
62915;SDS011;49010;51.230;-2.306;2022-12-18T23:17:52;2.55;;;0.80;;
62915;SDS011;49010;51.230;-2.306;2022-12-18T23:21:34;2.15;;;0.80;;
62915;SDS011;49010;51.230;-2.306;2022-12-18T23:25:17;2.33;;;0.43;;
62915;SDS011;49010;51.230;-2.306;2022-12-18T23:28:59;4.50;;;1.10;;
62915;SDS011;49010;51.230;-2.306;2022-12-18T23:32:41;3.38;;;0.50;;
62915;SDS011;49010;51.230;-2.306;2022-12-18T23:36:23;1.63;;;0.40;;
62915;SDS011;49010;51.230;-2.306;2022-12-18T23:40:06;3.55;;;0.52;;
62915;SDS011;49010;51.230;-2.306;2022-12-18T23:43:48;2.42;;;0.52;;
62915;SDS011;49010;51.230;-2.306;2022-12-18T23:47:30;1.95;;;0.40;;
62915;SDS011;49010;51.230;-2.306;2022-12-18T23:51:12;1.25;;;0.40;;